sensor_id;sensor_type;location;lat;lon;timestamp;temperature;humidity
5868;DHT22;2960;49.142;7.768;2022-08-07T00:02:08;18.10;39.90
5868;DHT22;2960;49.142;7.768;2022-08-07T00:04:35;18.00;40.00
5868;DHT22;2960;49.142;7.768;2022-08-07T00:07:04;18.00;40.10
5868;DHT22;2960;49.142;7.768;2022-08-07T00:09:31;17.90;40.10
5868;DHT22;2960;49.142;7.768;2022-08-07T00:11:58;17.90;40.20
5868;DHT22;2960;49.142;7.768;2022-08-07T00:14:26;17.90;40.30
5868;DHT22;2960;49.142;7.768;2022-08-07T00:16:55;17.90;40.40
5868;DHT22;2960;49.142;7.768;2022-08-07T00:19:22;17.80;40.40
5868;DHT22;2960;49.142;7.768;2022-08-07T00:21:49;17.80;41.10
5868;DHT22;2960;49.142;7.768;2022-08-07T00:24:18;17.80;40.60
5868;DHT22;2960;49.142;7.768;2022-08-07T00:26:45;17.70;40.50
5868;DHT22;2960;49.142;7.768;2022-08-07T00:29:12;17.70;40.60
5868;DHT22;2960;49.142;7.768;2022-08-07T00:31:39;17.70;40.70
5868;DHT22;2960;49.142;7.768;2022-08-07T00:34:07;17.60;40.80
5868;DHT22;2960;49.142;7.768;2022-08-07T00:36:34;17.60;40.90
5868;DHT22;2960;49.142;7.768;2022-08-07T00:39:01;17.60;41.00
5868;DHT22;2960;49.142;7.768;2022-08-07T00:41:32;17.50;41.00
5868;DHT22;2960;49.142;7.768;2022-08-07T00:44:00;17.50;41.10
5868;DHT22;2960;49.142;7.768;2022-08-07T00:46:27;17.50;41.20
5868;DHT22;2960;49.142;7.768;2022-08-07T00:48:54;17.40;41.40
5868;DHT22;2960;49.142;7.768;2022-08-07T00:51:26;17.40;41.40
5868;DHT22;2960;49.142;7.768;2022-08-07T00:53:54;17.30;41.40
5868;DHT22;2960;49.142;7.768;2022-08-07T00:56:21;17.30;41.60
5868;DHT22;2960;49.142;7.768;2022-08-07T00:58:50;17.30;41.60
5868;DHT22;2960;49.142;7.768;2022-08-07T01:01:18;17.20;41.60
5868;DHT22;2960;49.142;7.768;2022-08-07T01:03:45;17.20;41.70
5868;DHT22;2960;49.142;7.768;2022-08-07T01:06:13;17.10;41.80
5868;DHT22;2960;49.142;7.768;2022-08-07T01:08:41;17.10;41.90
5868;DHT22;2960;49.142;7.768;2022-08-07T01:11:08;17.10;42.10
5868;DHT22;2960;49.142;7.768;2022-08-07T01:13:36;17.10;42.30
5868;DHT22;2960;49.142;7.768;2022-08-07T01:16:06;17.10;42.20
5868;DHT22;2960;49.142;7.768;2022-08-07T01:18:35;17.00;42.20
5868;DHT22;2960;49.142;7.768;2022-08-07T01:21:09;17.00;42.30
5868;DHT22;2960;49.142;7.768;2022-08-07T01:23:38;17.00;42.30
5868;DHT22;2960;49.142;7.768;2022-08-07T01:26:07;17.00;42.70
5868;DHT22;2960;49.142;7.768;2022-08-07T01:28:35;16.90;42.40
5868;DHT22;2960;49.142;7.768;2022-08-07T01:31:03;16.90;42.50
5868;DHT22;2960;49.142;7.768;2022-08-07T01:33:30;16.90;42.50
5868;DHT22;2960;49.142;7.768;2022-08-07T01:35:58;16.90;42.60
5868;DHT22;2960;49.142;7.768;2022-08-07T01:38:29;16.90;42.70
5868;DHT22;2960;49.142;7.768;2022-08-07T01:40:58;16.80;42.70
5868;DHT22;2960;49.142;7.768;2022-08-07T01:43:27;16.80;42.80
5868;DHT22;2960;49.142;7.768;2022-08-07T01:45:56;16.80;42.80
5868;DHT22;2960;49.142;7.768;2022-08-07T01:48:24;16.80;42.90
5868;DHT22;2960;49.142;7.768;2022-08-07T01:50:56;16.80;42.80
5868;DHT22;2960;49.142;7.768;2022-08-07T01:53:27;16.80;42.90
5868;DHT22;2960;49.142;7.768;2022-08-07T01:56:00;16.80;43.00
5868;DHT22;2960;49.142;7.768;2022-08-07T01:58:33;16.70;43.00
5868;DHT22;2960;49.142;7.768;2022-08-07T02:01:13;16.70;43.10
5868;DHT22;2960;49.142;7.768;2022-08-07T02:03:48;16.70;43.20
5868;DHT22;2960;49.142;7.768;2022-08-07T02:06:20;16.70;43.30
5868;DHT22;2960;49.142;7.768;2022-08-07T02:08:51;16.60;43.20
5868;DHT22;2960;49.142;7.768;2022-08-07T02:11:19;16.60;43.30
5868;DHT22;2960;49.142;7.768;2022-08-07T02:13:47;16.60;43.40
5868;DHT22;2960;49.142;7.768;2022-08-07T02:16:16;16.50;43.40
5868;DHT22;2960;49.142;7.768;2022-08-07T02:18:45;16.50;43.50
5868;DHT22;2960;49.142;7.768;2022-08-07T02:21:14;16.40;43.50
5868;DHT22;2960;49.142;7.768;2022-08-07T02:23:42;16.40;43.70
5868;DHT22;2960;49.142;7.768;2022-08-07T02:26:13;16.40;43.70
5868;DHT22;2960;49.142;7.768;2022-08-07T02:28:41;16.30;43.80
5868;DHT22;2960;49.142;7.768;2022-08-07T02:31:08;16.30;43.90
5868;DHT22;2960;49.142;7.768;2022-08-07T02:33:37;16.20;43.90
5868;DHT22;2960;49.142;7.768;2022-08-07T02:36:06;16.20;44.00
5868;DHT22;2960;49.142;7.768;2022-08-07T02:38:36;16.10;44.10
5868;DHT22;2960;49.142;7.768;2022-08-07T02:41:04;16.10;44.10
5868;DHT22;2960;49.142;7.768;2022-08-07T02:43:34;16.10;44.30
5868;DHT22;2960;49.142;7.768;2022-08-07T02:46:04;16.00;44.30
5868;DHT22;2960;49.142;7.768;2022-08-07T02:48:32;16.00;44.40
5868;DHT22;2960;49.142;7.768;2022-08-07T02:51:04;15.90;45.00
5868;DHT22;2960;49.142;7.768;2022-08-07T02:53:34;15.90;44.50
5868;DHT22;2960;49.142;7.768;2022-08-07T02:56:06;15.90;44.60
5868;DHT22;2960;49.142;7.768;2022-08-07T02:58:36;15.80;44.60
5868;DHT22;2960;49.142;7.768;2022-08-07T03:01:05;15.80;44.70
5868;DHT22;2960;49.142;7.768;2022-08-07T03:03:33;15.80;44.80
5868;DHT22;2960;49.142;7.768;2022-08-07T03:06:02;15.70;44.80
5868;DHT22;2960;49.142;7.768;2022-08-07T03:08:30;15.70;44.90
5868;DHT22;2960;49.142;7.768;2022-08-07T03:10:58;15.70;45.00
5868;DHT22;2960;49.142;7.768;2022-08-07T03:13:26;15.60;45.00
5868;DHT22;2960;49.142;7.768;2022-08-07T03:15:55;15.60;45.10
5868;DHT22;2960;49.142;7.768;2022-08-07T03:18:22;15.50;45.10
5868;DHT22;2960;49.142;7.768;2022-08-07T03:20:50;15.50;45.30
5868;DHT22;2960;49.142;7.768;2022-08-07T03:23:19;15.50;45.30
5868;DHT22;2960;49.142;7.768;2022-08-07T03:25:48;15.40;45.30
5868;DHT22;2960;49.142;7.768;2022-08-07T03:28:16;15.40;45.40
5868;DHT22;2960;49.142;7.768;2022-08-07T03:30:44;15.40;45.40
5868;DHT22;2960;49.142;7.768;2022-08-07T03:33:13;15.40;45.50
5868;DHT22;2960;49.142;7.768;2022-08-07T03:35:41;15.40;45.60
5868;DHT22;2960;49.142;7.768;2022-08-07T03:38:10;15.30;45.60
5868;DHT22;2960;49.142;7.768;2022-08-07T03:40:39;15.30;45.70
5868;DHT22;2960;49.142;7.768;2022-08-07T03:43:06;15.30;45.80
5868;DHT22;2960;49.142;7.768;2022-08-07T03:45:34;15.30;45.80
5868;DHT22;2960;49.142;7.768;2022-08-07T03:48:02;15.20;45.80
5868;DHT22;2960;49.142;7.768;2022-08-07T03:50:34;15.20;45.80
5868;DHT22;2960;49.142;7.768;2022-08-07T03:53:02;15.20;45.90
5868;DHT22;2960;49.142;7.768;2022-08-07T03:55:30;15.20;45.90
5868;DHT22;2960;49.142;7.768;2022-08-07T03:57:58;15.10;46.00
5868;DHT22;2960;49.142;7.768;2022-08-07T04:00:26;15.10;46.10
5868;DHT22;2960;49.142;7.768;2022-08-07T04:02:55;15.10;46.20
5868;DHT22;2960;49.142;7.768;2022-08-07T04:05:22;15.00;46.30
5868;DHT22;2960;49.142;7.768;2022-08-07T04:07:51;15.00;46.30
5868;DHT22;2960;49.142;7.768;2022-08-07T04:10:18;15.00;46.40
5868;DHT22;2960;49.142;7.768;2022-08-07T04:12:46;14.90;46.40
5868;DHT22;2960;49.142;7.768;2022-08-07T04:15:15;14.90;46.50
5868;DHT22;2960;49.142;7.768;2022-08-07T04:17:43;14.90;46.60
5868;DHT22;2960;49.142;7.768;2022-08-07T04:20:11;14.90;46.70
5868;DHT22;2960;49.142;7.768;2022-08-07T04:22:39;14.90;46.70
5868;DHT22;2960;49.142;7.768;2022-08-07T04:25:08;14.80;46.70
5868;DHT22;2960;49.142;7.768;2022-08-07T04:27:36;14.80;46.80
5868;DHT22;2960;49.142;7.768;2022-08-07T04:30:04;14.70;46.90
5868;DHT22;2960;49.142;7.768;2022-08-07T04:32:32;14.70;47.00
5868;DHT22;2960;49.142;7.768;2022-08-07T04:35:01;14.70;47.10
5868;DHT22;2960;49.142;7.768;2022-08-07T04:37:30;14.70;47.00
5868;DHT22;2960;49.142;7.768;2022-08-07T04:39:58;14.70;47.10
5868;DHT22;2960;49.142;7.768;2022-08-07T04:42:26;14.70;47.20
5868;DHT22;2960;49.142;7.768;2022-08-07T04:44:57;14.70;47.20
5868;DHT22;2960;49.142;7.768;2022-08-07T04:47:31;14.70;47.20
5868;DHT22;2960;49.142;7.768;2022-08-07T04:50:05;14.70;47.30
5868;DHT22;2960;49.142;7.768;2022-08-07T04:52:40;14.80;47.30
5868;DHT22;2960;49.142;7.768;2022-08-07T04:55:17;14.90;47.30
5868;DHT22;2960;49.142;7.768;2022-08-07T04:57:53;15.00;47.20
5868;DHT22;2960;49.142;7.768;2022-08-07T05:00:32;15.10;47.20
5868;DHT22;2960;49.142;7.768;2022-08-07T05:03:13;15.10;47.20
5868;DHT22;2960;49.142;7.768;2022-08-07T05:05:50;15.10;47.20
5868;DHT22;2960;49.142;7.768;2022-08-07T05:08:25;15.10;47.30
5868;DHT22;2960;49.142;7.768;2022-08-07T05:10:57;15.10;47.30
5868;DHT22;2960;49.142;7.768;2022-08-07T05:13:31;15.10;47.30
5868;DHT22;2960;49.142;7.768;2022-08-07T05:16:05;15.20;47.40
5868;DHT22;2960;49.142;7.768;2022-08-07T05:18:38;15.30;47.40
5868;DHT22;2960;49.142;7.768;2022-08-07T05:21:08;15.30;47.30
5868;DHT22;2960;49.142;7.768;2022-08-07T05:23:40;15.50;47.40
5868;DHT22;2960;49.142;7.768;2022-08-07T05:26:15;15.60;47.30
5868;DHT22;2960;49.142;7.768;2022-08-07T05:28:45;15.70;47.30
5868;DHT22;2960;49.142;7.768;2022-08-07T05:31:16;15.80;47.80
5868;DHT22;2960;49.142;7.768;2022-08-07T05:33:45;15.80;47.20
5868;DHT22;2960;49.142;7.768;2022-08-07T05:36:15;15.90;47.20
5868;DHT22;2960;49.142;7.768;2022-08-07T05:38:43;16.00;47.20
5868;DHT22;2960;49.142;7.768;2022-08-07T05:41:11;16.10;47.20
5868;DHT22;2960;49.142;7.768;2022-08-07T05:43:39;16.20;47.80
5868;DHT22;2960;49.142;7.768;2022-08-07T05:46:09;16.30;47.20
5868;DHT22;2960;49.142;7.768;2022-08-07T05:48:37;16.40;47.30
5868;DHT22;2960;49.142;7.768;2022-08-07T05:51:05;16.50;47.30
5868;DHT22;2960;49.142;7.768;2022-08-07T05:53:33;16.70;47.40
5868;DHT22;2960;49.142;7.768;2022-08-07T05:56:00;16.80;47.30
5868;DHT22;2960;49.142;7.768;2022-08-07T05:58:29;16.90;47.30
5868;DHT22;2960;49.142;7.768;2022-08-07T06:00:57;17.00;48.00
5868;DHT22;2960;49.142;7.768;2022-08-07T06:03:28;17.10;47.40
5868;DHT22;2960;49.142;7.768;2022-08-07T06:05:57;17.10;47.30
5868;DHT22;2960;49.142;7.768;2022-08-07T06:08:25;17.20;47.40
5868;DHT22;2960;49.142;7.768;2022-08-07T06:10:52;17.30;47.50
5868;DHT22;2960;49.142;7.768;2022-08-07T06:13:19;17.50;47.50
5868;DHT22;2960;49.142;7.768;2022-08-07T06:15:47;17.60;47.60
5868;DHT22;2960;49.142;7.768;2022-08-07T06:18:15;17.70;47.60
5868;DHT22;2960;49.142;7.768;2022-08-07T06:20:44;17.80;47.70
5868;DHT22;2960;49.142;7.768;2022-08-07T06:23:12;17.90;47.80
5868;DHT22;2960;49.142;7.768;2022-08-07T06:25:40;18.00;47.90
5868;DHT22;2960;49.142;7.768;2022-08-07T06:28:09;18.10;47.90
5868;DHT22;2960;49.142;7.768;2022-08-07T06:30:37;18.20;47.90
5868;DHT22;2960;49.142;7.768;2022-08-07T06:33:05;18.30;48.00
5868;DHT22;2960;49.142;7.768;2022-08-07T06:35:34;18.40;47.90
5868;DHT22;2960;49.142;7.768;2022-08-07T06:38:03;18.50;48.00
5868;DHT22;2960;49.142;7.768;2022-08-07T06:40:36;18.60;48.00
5868;DHT22;2960;49.142;7.768;2022-08-07T06:43:08;18.70;48.10
5868;DHT22;2960;49.142;7.768;2022-08-07T06:45:36;18.80;47.90
5868;DHT22;2960;49.142;7.768;2022-08-07T06:48:04;18.90;47.90
5868;DHT22;2960;49.142;7.768;2022-08-07T06:50:33;19.10;48.00
5868;DHT22;2960;49.142;7.768;2022-08-07T06:53:05;19.20;47.90
5868;DHT22;2960;49.142;7.768;2022-08-07T06:55:34;19.40;47.80
5868;DHT22;2960;49.142;7.768;2022-08-07T06:58:03;19.50;48.20
5868;DHT22;2960;49.142;7.768;2022-08-07T07:00:36;19.60;47.50
5868;DHT22;2960;49.142;7.768;2022-08-07T07:03:05;19.80;47.50
5868;DHT22;2960;49.142;7.768;2022-08-07T07:05:34;19.90;47.40
5868;DHT22;2960;49.142;7.768;2022-08-07T07:08:02;20.00;47.20
5868;DHT22;2960;49.142;7.768;2022-08-07T07:10:31;20.20;47.10
5868;DHT22;2960;49.142;7.768;2022-08-07T07:13:05;20.30;46.90
5868;DHT22;2960;49.142;7.768;2022-08-07T07:15:43;20.40;46.80
5868;DHT22;2960;49.142;7.768;2022-08-07T07:18:16;20.60;46.60
5868;DHT22;2960;49.142;7.768;2022-08-07T07:20:48;20.70;46.40
5868;DHT22;2960;49.142;7.768;2022-08-07T07:23:21;20.80;46.30
5868;DHT22;2960;49.142;7.768;2022-08-07T07:25:51;21.00;46.30
5868;DHT22;2960;49.142;7.768;2022-08-07T07:28:23;21.10;46.10
5868;DHT22;2960;49.142;7.768;2022-08-07T07:30:56;21.20;46.00
5868;DHT22;2960;49.142;7.768;2022-08-07T07:33:27;21.40;45.90
5868;DHT22;2960;49.142;7.768;2022-08-07T07:35:56;21.50;45.80
5868;DHT22;2960;49.142;7.768;2022-08-07T07:38:25;21.60;45.60
5868;DHT22;2960;49.142;7.768;2022-08-07T07:40:55;21.80;45.60
5868;DHT22;2960;49.142;7.768;2022-08-07T07:43:24;21.90;45.60
5868;DHT22;2960;49.142;7.768;2022-08-07T07:45:53;22.00;45.50
5868;DHT22;2960;49.142;7.768;2022-08-07T07:48:22;22.10;45.40
5868;DHT22;2960;49.142;7.768;2022-08-07T07:50:53;22.30;45.40
5868;DHT22;2960;49.142;7.768;2022-08-07T07:53:22;22.40;45.20
5868;DHT22;2960;49.142;7.768;2022-08-07T07:55:53;22.50;45.10
5868;DHT22;2960;49.142;7.768;2022-08-07T07:58:24;22.60;45.10
5868;DHT22;2960;49.142;7.768;2022-08-07T08:00:51;22.70;45.00
5868;DHT22;2960;49.142;7.768;2022-08-07T08:03:20;22.80;45.10
5868;DHT22;2960;49.142;7.768;2022-08-07T08:05:50;22.90;45.00
5868;DHT22;2960;49.142;7.768;2022-08-07T08:08:17;23.10;45.00
5868;DHT22;2960;49.142;7.768;2022-08-07T08:10:47;23.20;45.00
5868;DHT22;2960;49.142;7.768;2022-08-07T08:13:14;23.30;44.90
5868;DHT22;2960;49.142;7.768;2022-08-07T08:15:43;23.50;44.90
5868;DHT22;2960;49.142;7.768;2022-08-07T08:18:12;23.70;44.90
5868;DHT22;2960;49.142;7.768;2022-08-07T08:20:41;23.70;44.80
5868;DHT22;2960;49.142;7.768;2022-08-07T08:23:10;23.90;44.90
5868;DHT22;2960;49.142;7.768;2022-08-07T08:26:00;24.00;44.80
5868;DHT22;2960;49.142;7.768;2022-08-07T08:28:45;24.20;44.80
5868;DHT22;2960;49.142;7.768;2022-08-07T08:31:19;24.30;44.80
5868;DHT22;2960;49.142;7.768;2022-08-07T08:33:47;24.40;44.70
5868;DHT22;2960;49.142;7.768;2022-08-07T08:36:19;24.50;44.60
5868;DHT22;2960;49.142;7.768;2022-08-07T08:38:48;24.70;44.60
5868;DHT22;2960;49.142;7.768;2022-08-07T08:41:21;24.80;44.60
5868;DHT22;2960;49.142;7.768;2022-08-07T08:43:58;24.90;44.50
5868;DHT22;2960;49.142;7.768;2022-08-07T08:46:36;25.00;44.40
5868;DHT22;2960;49.142;7.768;2022-08-07T08:49:15;25.10;44.30
5868;DHT22;2960;49.142;7.768;2022-08-07T08:51:53;25.20;44.20
5868;DHT22;2960;49.142;7.768;2022-08-07T08:54:28;25.40;44.70
5868;DHT22;2960;49.142;7.768;2022-08-07T08:57:02;25.40;43.90
5868;DHT22;2960;49.142;7.768;2022-08-07T08:59:41;25.50;43.80
5868;DHT22;2960;49.142;7.768;2022-08-07T09:02:16;25.60;43.80
5868;DHT22;2960;49.142;7.768;2022-08-07T09:04:55;25.70;43.60
5868;DHT22;2960;49.142;7.768;2022-08-07T09:07:35;25.70;43.50
5868;DHT22;2960;49.142;7.768;2022-08-07T09:10:16;25.80;43.50
5868;DHT22;2960;49.142;7.768;2022-08-07T09:13:02;25.80;43.30
5868;DHT22;2960;49.142;7.768;2022-08-07T09:15:45;25.90;43.20
5868;DHT22;2960;49.142;7.768;2022-08-07T09:18:25;26.00;43.10
5868;DHT22;2960;49.142;7.768;2022-08-07T09:21:09;26.00;42.90
5868;DHT22;2960;49.142;7.768;2022-08-07T09:23:52;26.00;42.80
5868;DHT22;2960;49.142;7.768;2022-08-07T09:26:30;26.10;42.70
5868;DHT22;2960;49.142;7.768;2022-08-07T09:29:10;26.10;42.60
5868;DHT22;2960;49.142;7.768;2022-08-07T09:31:44;26.20;42.50
5868;DHT22;2960;49.142;7.768;2022-08-07T09:34:24;26.20;42.40
5868;DHT22;2960;49.142;7.768;2022-08-07T09:37:01;26.30;42.40
5868;DHT22;2960;49.142;7.768;2022-08-07T09:39:38;26.30;42.20
5868;DHT22;2960;49.142;7.768;2022-08-07T09:42:24;26.40;42.10
5868;DHT22;2960;49.142;7.768;2022-08-07T09:45:09;26.50;42.00
5868;DHT22;2960;49.142;7.768;2022-08-07T09:50:43;26.70;41.50
5868;DHT22;2960;49.142;7.768;2022-08-07T09:53:16;26.80;41.30
5868;DHT22;2960;49.142;7.768;2022-08-07T09:56:02;27.00;41.20
5868;DHT22;2960;49.142;7.768;2022-08-07T09:58:59;27.10;40.80
5868;DHT22;2960;49.142;7.768;2022-08-07T10:01:57;27.20;40.40
5868;DHT22;2960;49.142;7.768;2022-08-07T10:07:42;27.50;40.00
5868;DHT22;2960;49.142;7.768;2022-08-07T10:10:33;27.50;39.70
5868;DHT22;2960;49.142;7.768;2022-08-07T10:13:13;27.60;40.00
5868;DHT22;2960;49.142;7.768;2022-08-07T10:16:14;27.70;39.20
5868;DHT22;2960;49.142;7.768;2022-08-07T10:19:03;27.80;38.90
5868;DHT22;2960;49.142;7.768;2022-08-07T10:21:51;27.90;38.80
5868;DHT22;2960;49.142;7.768;2022-08-07T10:24:39;28.00;38.60
5868;DHT22;2960;49.142;7.768;2022-08-07T10:27:30;28.10;38.50
5868;DHT22;2960;49.142;7.768;2022-08-07T10:30:09;28.20;38.10
5868;DHT22;2960;49.142;7.768;2022-08-07T10:33:06;28.20;37.50
5868;DHT22;2960;49.142;7.768;2022-08-07T10:35:54;28.30;37.50
5868;DHT22;2960;49.142;7.768;2022-08-07T10:38:49;28.30;37.30
5868;DHT22;2960;49.142;7.768;2022-08-07T10:41:25;28.40;37.10
5868;DHT22;2960;49.142;7.768;2022-08-07T10:44:01;28.40;36.70
5868;DHT22;2960;49.142;7.768;2022-08-07T10:46:38;28.50;36.50
5868;DHT22;2960;49.142;7.768;2022-08-07T10:49:12;28.50;36.10
5868;DHT22;2960;49.142;7.768;2022-08-07T10:51:51;28.60;35.70
5868;DHT22;2960;49.142;7.768;2022-08-07T10:54:31;28.60;35.10
5868;DHT22;2960;49.142;7.768;2022-08-07T10:57:07;28.60;35.00
5868;DHT22;2960;49.142;7.768;2022-08-07T11:00:02;28.60;34.90
5868;DHT22;2960;49.142;7.768;2022-08-07T11:02:38;28.70;34.80
5868;DHT22;2960;49.142;7.768;2022-08-07T11:05:17;28.80;34.40
5868;DHT22;2960;49.142;7.768;2022-08-07T11:08:01;28.80;33.90
5868;DHT22;2960;49.142;7.768;2022-08-07T11:10:39;28.80;33.60
5868;DHT22;2960;49.142;7.768;2022-08-07T11:13:15;28.90;33.30
5868;DHT22;2960;49.142;7.768;2022-08-07T11:15:47;28.90;33.00
5868;DHT22;2960;49.142;7.768;2022-08-07T11:18:20;29.00;32.90
5868;DHT22;2960;49.142;7.768;2022-08-07T11:20:55;29.00;32.90
5868;DHT22;2960;49.142;7.768;2022-08-07T11:23:37;29.10;32.70
5868;DHT22;2960;49.142;7.768;2022-08-07T11:26:13;29.10;32.60
5868;DHT22;2960;49.142;7.768;2022-08-07T11:28:48;29.10;32.50
5868;DHT22;2960;49.142;7.768;2022-08-07T11:31:25;29.10;32.50
5868;DHT22;2960;49.142;7.768;2022-08-07T11:34:01;29.20;32.30
5868;DHT22;2960;49.142;7.768;2022-08-07T11:36:46;29.20;32.10
5868;DHT22;2960;49.142;7.768;2022-08-07T11:42:20;29.30;32.10
5868;DHT22;2960;49.142;7.768;2022-08-07T11:44:55;29.40;32.10
5868;DHT22;2960;49.142;7.768;2022-08-07T11:47:40;29.40;32.10
5868;DHT22;2960;49.142;7.768;2022-08-07T11:50:26;29.40;32.10
5868;DHT22;2960;49.142;7.768;2022-08-07T11:53:09;29.50;32.20
5868;DHT22;2960;49.142;7.768;2022-08-07T11:55:58;29.50;32.70
5868;DHT22;2960;49.142;7.768;2022-08-07T11:58:40;29.60;32.10
5868;DHT22;2960;49.142;7.768;2022-08-07T12:01:23;29.60;32.10
5868;DHT22;2960;49.142;7.768;2022-08-07T12:04:09;29.60;32.10
5868;DHT22;2960;49.142;7.768;2022-08-07T12:06:47;29.70;32.10
5868;DHT22;2960;49.142;7.768;2022-08-07T12:09:21;29.70;32.10
5868;DHT22;2960;49.142;7.768;2022-08-07T12:11:57;29.70;32.10
5868;DHT22;2960;49.142;7.768;2022-08-07T12:14:37;29.80;32.20
5868;DHT22;2960;49.142;7.768;2022-08-07T12:17:10;29.80;31.90
5868;DHT22;2960;49.142;7.768;2022-08-07T12:19:45;29.80;32.00
5868;DHT22;2960;49.142;7.768;2022-08-07T12:22:21;29.80;32.10
5868;DHT22;2960;49.142;7.768;2022-08-07T12:24:58;29.80;32.00
5868;DHT22;2960;49.142;7.768;2022-08-07T12:27:49;29.90;31.90
5868;DHT22;2960;49.142;7.768;2022-08-07T12:30:23;29.90;32.00
5868;DHT22;2960;49.142;7.768;2022-08-07T12:32:59;29.90;32.00
5868;DHT22;2960;49.142;7.768;2022-08-07T12:35:30;30.00;32.10
5868;DHT22;2960;49.142;7.768;2022-08-07T12:38:00;30.00;32.10
5868;DHT22;2960;49.142;7.768;2022-08-07T12:40:29;30.10;32.10
5868;DHT22;2960;49.142;7.768;2022-08-07T12:43:02;30.10;31.90
5868;DHT22;2960;49.142;7.768;2022-08-07T12:45:36;30.10;31.90
5868;DHT22;2960;49.142;7.768;2022-08-07T12:48:12;30.10;31.80
5868;DHT22;2960;49.142;7.768;2022-08-07T12:50:49;30.20;31.90
5868;DHT22;2960;49.142;7.768;2022-08-07T12:53:26;30.20;31.80
5868;DHT22;2960;49.142;7.768;2022-08-07T12:56:02;30.20;31.80
5868;DHT22;2960;49.142;7.768;2022-08-07T12:58:42;30.20;31.70
5868;DHT22;2960;49.142;7.768;2022-08-07T13:01:18;30.20;31.50
5868;DHT22;2960;49.142;7.768;2022-08-07T13:04:08;30.20;31.40
5868;DHT22;2960;49.142;7.768;2022-08-07T13:06:58;30.20;31.40
5868;DHT22;2960;49.142;7.768;2022-08-07T13:09:49;30.20;31.40
5868;DHT22;2960;49.142;7.768;2022-08-07T13:12:30;30.20;31.50
5868;DHT22;2960;49.142;7.768;2022-08-07T13:15:05;30.20;31.40
5868;DHT22;2960;49.142;7.768;2022-08-07T13:17:45;30.20;31.30
5868;DHT22;2960;49.142;7.768;2022-08-07T13:20:22;30.30;31.30
5868;DHT22;2960;49.142;7.768;2022-08-07T13:23:02;30.30;31.10
5868;DHT22;2960;49.142;7.768;2022-08-07T13:25:37;30.30;31.10
5868;DHT22;2960;49.142;7.768;2022-08-07T13:28:11;30.30;31.00
5868;DHT22;2960;49.142;7.768;2022-08-07T13:30:48;30.20;30.80
5868;DHT22;2960;49.142;7.768;2022-08-07T13:33:25;30.20;30.80
5868;DHT22;2960;49.142;7.768;2022-08-07T13:35:58;30.10;30.90
5868;DHT22;2960;49.142;7.768;2022-08-07T13:38:39;30.10;30.90
5868;DHT22;2960;49.142;7.768;2022-08-07T13:41:14;30.10;30.90
5868;DHT22;2960;49.142;7.768;2022-08-07T13:43:47;30.10;31.00
5868;DHT22;2960;49.142;7.768;2022-08-07T13:46:17;30.10;31.00
5868;DHT22;2960;49.142;7.768;2022-08-07T13:48:48;30.10;30.70
5868;DHT22;2960;49.142;7.768;2022-08-07T13:51:18;30.10;30.70
5868;DHT22;2960;49.142;7.768;2022-08-07T13:53:51;30.00;30.60
5868;DHT22;2960;49.142;7.768;2022-08-07T13:56:22;30.00;30.60
5868;DHT22;2960;49.142;7.768;2022-08-07T13:58:52;29.90;30.40
5868;DHT22;2960;49.142;7.768;2022-08-07T14:01:33;29.90;30.60
5868;DHT22;2960;49.142;7.768;2022-08-07T14:04:07;29.80;30.60
5868;DHT22;2960;49.142;7.768;2022-08-07T14:06:39;29.80;30.70
5868;DHT22;2960;49.142;7.768;2022-08-07T14:09:14;29.80;30.70
5868;DHT22;2960;49.142;7.768;2022-08-07T14:11:45;29.80;31.30
5868;DHT22;2960;49.142;7.768;2022-08-07T14:14:17;29.80;30.70
5868;DHT22;2960;49.142;7.768;2022-08-07T14:16:49;29.80;30.70
5868;DHT22;2960;49.142;7.768;2022-08-07T14:19:22;29.70;30.60
5868;DHT22;2960;49.142;7.768;2022-08-07T14:21:56;29.70;30.60
5868;DHT22;2960;49.142;7.768;2022-08-07T14:24:27;29.70;30.60
5868;DHT22;2960;49.142;7.768;2022-08-07T14:26:57;29.70;30.40
5868;DHT22;2960;49.142;7.768;2022-08-07T14:29:29;29.70;30.20
5868;DHT22;2960;49.142;7.768;2022-08-07T14:32:03;29.70;30.30
5868;DHT22;2960;49.142;7.768;2022-08-07T14:34:33;29.60;30.30
5868;DHT22;2960;49.142;7.768;2022-08-07T14:37:08;29.60;30.30
5868;DHT22;2960;49.142;7.768;2022-08-07T14:39:38;29.60;30.50
5868;DHT22;2960;49.142;7.768;2022-08-07T14:42:09;29.60;30.50
5868;DHT22;2960;49.142;7.768;2022-08-07T14:44:38;29.60;30.50
5868;DHT22;2960;49.142;7.768;2022-08-07T14:47:12;29.50;30.50
5868;DHT22;2960;49.142;7.768;2022-08-07T14:49:41;29.50;30.60
5868;DHT22;2960;49.142;7.768;2022-08-07T14:52:10;29.50;30.70
5868;DHT22;2960;49.142;7.768;2022-08-07T14:54:39;29.50;30.60
5868;DHT22;2960;49.142;7.768;2022-08-07T14:57:10;29.40;30.50
5868;DHT22;2960;49.142;7.768;2022-08-07T14:59:40;29.40;30.50
5868;DHT22;2960;49.142;7.768;2022-08-07T15:02:11;29.30;30.30
5868;DHT22;2960;49.142;7.768;2022-08-07T15:04:41;29.30;30.10
5868;DHT22;2960;49.142;7.768;2022-08-07T15:07:15;29.20;30.10
5868;DHT22;2960;49.142;7.768;2022-08-07T15:09:43;29.10;30.10
5868;DHT22;2960;49.142;7.768;2022-08-07T15:12:14;29.10;30.20
5868;DHT22;2960;49.142;7.768;2022-08-07T15:14:49;29.10;30.20
5868;DHT22;2960;49.142;7.768;2022-08-07T15:17:24;29.00;30.20
5868;DHT22;2960;49.142;7.768;2022-08-07T15:19:58;29.00;30.20
5868;DHT22;2960;49.142;7.768;2022-08-07T15:22:31;28.90;30.20
5868;DHT22;2960;49.142;7.768;2022-08-07T15:25:11;28.90;30.30
5868;DHT22;2960;49.142;7.768;2022-08-07T15:27:40;28.80;30.30
5868;DHT22;2960;49.142;7.768;2022-08-07T15:30:11;28.80;30.30
5868;DHT22;2960;49.142;7.768;2022-08-07T15:32:41;28.80;30.30
5868;DHT22;2960;49.142;7.768;2022-08-07T15:35:15;28.80;30.30
5868;DHT22;2960;49.142;7.768;2022-08-07T15:37:49;28.80;30.30
5868;DHT22;2960;49.142;7.768;2022-08-07T15:40:17;28.70;30.20
5868;DHT22;2960;49.142;7.768;2022-08-07T15:42:52;28.70;30.20
5868;DHT22;2960;49.142;7.768;2022-08-07T15:45:33;28.70;30.30
5868;DHT22;2960;49.142;7.768;2022-08-07T15:48:07;28.70;30.40
5868;DHT22;2960;49.142;7.768;2022-08-07T15:50:44;28.60;30.30
5868;DHT22;2960;49.142;7.768;2022-08-07T15:53:16;28.60;30.30
5868;DHT22;2960;49.142;7.768;2022-08-07T15:55:52;28.60;30.40
5868;DHT22;2960;49.142;7.768;2022-08-07T15:58:27;28.60;30.40
5868;DHT22;2960;49.142;7.768;2022-08-07T16:00:58;28.50;30.40
5868;DHT22;2960;49.142;7.768;2022-08-07T16:03:31;28.50;31.00
5868;DHT22;2960;49.142;7.768;2022-08-07T16:06:00;28.50;30.40
5868;DHT22;2960;49.142;7.768;2022-08-07T16:08:31;28.50;30.40
5868;DHT22;2960;49.142;7.768;2022-08-07T16:11:04;28.50;30.40
5868;DHT22;2960;49.142;7.768;2022-08-07T16:13:49;28.40;30.30
5868;DHT22;2960;49.142;7.768;2022-08-07T16:19:58;28.40;30.90
5868;DHT22;2960;49.142;7.768;2022-08-07T16:22:50;28.40;30.20
5868;DHT22;2960;49.142;7.768;2022-08-07T16:25:45;28.30;30.20
5868;DHT22;2960;49.142;7.768;2022-08-07T16:28:48;28.30;30.00
5868;DHT22;2960;49.142;7.768;2022-08-07T16:31:26;28.30;30.00
5868;DHT22;2960;49.142;7.768;2022-08-07T16:34:04;28.20;30.00
5868;DHT22;2960;49.142;7.768;2022-08-07T16:36:44;28.20;29.90
5868;DHT22;2960;49.142;7.768;2022-08-07T16:39:31;28.20;29.90
5868;DHT22;2960;49.142;7.768;2022-08-07T16:42:40;28.10;29.80
5868;DHT22;2960;49.142;7.768;2022-08-07T16:51:58;28.00;29.80
5868;DHT22;2960;49.142;7.768;2022-08-07T16:54:33;28.00;29.80
5868;DHT22;2960;49.142;7.768;2022-08-07T16:57:24;28.00;29.80
5868;DHT22;2960;49.142;7.768;2022-08-07T17:00:03;28.00;29.70
5868;DHT22;2960;49.142;7.768;2022-08-07T17:03:01;28.00;29.70